Terminal Aerodrome Forecast
Issued by NWS

Home | Current Version | Previous Version | Text Only | Print | Product List | Glossary On
Versions: 1 2 3 4 5 6 7 8 9 10 11 12 13 14 15 16 17 18 19 20 21 22 23 24 25
744
FTUS43 KAPX 171433 AAA
TAFAPN
TAF AMD
KAPN 171433Z 1715/1812 06004KT P6SM -SHSN BKN015 OVC027
      TEMPO 1715/1719 3SM -SHSN
     FM172100 14006KT P6SM -SHSN OVC015
     FM180500 21004KT 5SM BR OVC015=

USA.gov is the U.S. government's official web portal to all federal, state and local government web resources and services.